createdAt,value
2022-10-01T00:00:32.550Z,0.00
2022-10-01T00:01:32.832Z,0.00
2022-10-01T00:02:32.720Z,0.00
2022-10-01T00:03:32.346Z,0.00
2022-10-01T00:04:32.288Z,0.00
2022-10-01T00:05:32.225Z,0.00
2022-10-01T00:06:32.155Z,0.00
2022-10-01T00:07:32.097Z,0.00
2022-10-01T00:08:34.329Z,0.00
2022-10-01T00:09:31.965Z,0.00
2022-10-01T00:10:31.894Z,0.00
2022-10-01T00:11:32.229Z,0.00
2022-10-01T00:12:31.767Z,0.00
2022-10-01T00:13:31.699Z,0.00
2022-10-01T00:14:31.651Z,0.00
2022-10-01T00:15:31.576Z,0.00
2022-10-01T00:16:31.587Z,0.00
2022-10-01T00:17:31.440Z,0.00
2022-10-01T00:18:31.384Z,0.00
2022-10-01T00:19:31.314Z,0.00
2022-10-01T00:20:31.253Z,0.00
2022-10-01T00:21:31.362Z,0.00
2022-10-01T00:22:31.121Z,0.00
2022-10-01T00:23:31.050Z,0.00
2022-10-01T00:24:30.987Z,0.00
2022-10-01T00:25:30.932Z,0.00
2022-10-01T00:26:30.864Z,0.00
2022-10-01T00:27:30.795Z,0.00
2022-10-01T00:28:30.733Z,0.00
2022-10-01T00:29:30.675Z,0.00
2022-10-01T00:30:30.629Z,0.00
2022-10-01T00:31:30.686Z,0.00
2022-10-01T00:32:30.486Z,0.00
2022-10-01T00:33:30.400Z,0.00
2022-10-01T00:34:30.335Z,0.00
2022-10-01T00:35:30.280Z,0.00
2022-10-01T00:36:30.210Z,0.00
2022-10-01T00:37:31.139Z,0.00
2022-10-01T00:38:30.089Z,0.00
2022-10-01T00:39:30.022Z,0.00
2022-10-01T00:40:29.946Z,0.00
2022-10-01T00:41:29.890Z,0.00
2022-10-01T00:42:30.344Z,0.00
2022-10-01T00:43:29.751Z,0.00
2022-10-01T00:44:29.705Z,0.00
2022-10-01T00:45:29.696Z,0.00
2022-10-01T00:46:29.587Z,0.00
2022-10-01T00:47:29.494Z,0.00
2022-10-01T00:48:29.437Z,0.00
2022-10-01T00:49:29.366Z,0.00
2022-10-01T00:50:31.659Z,0.00
2022-10-01T00:51:29.234Z,0.00
2022-10-01T00:52:29.171Z,0.00
2022-10-01T00:53:29.106Z,0.00
2022-10-01T00:54:29.044Z,0.00
2022-10-01T00:55:28.982Z,0.00
2022-10-01T00:56:29.703Z,0.00
2022-10-01T00:57:28.845Z,0.00
2022-10-01T00:58:28.776Z,0.00
2022-10-01T00:59:28.712Z,0.00
2022-10-01T01:00:28.651Z,0.00
2022-10-01T01:01:28.832Z,0.00
2022-10-01T01:02:28.596Z,0.00
2022-10-01T01:03:28.460Z,0.00
2022-10-01T01:04:28.393Z,0.00
2022-10-01T01:05:28.328Z,0.00
2022-10-01T01:06:28.261Z,0.00
2022-10-01T01:07:28.192Z,0.00
2022-10-01T01:08:29.372Z,0.00
2022-10-01T01:09:28.069Z,0.00
2022-10-01T01:10:27.997Z,0.00
2022-10-01T01:11:27.934Z,0.00
2022-10-01T01:12:27.876Z,0.00
2022-10-01T01:13:27.810Z,0.00
2022-10-01T01:14:29.278Z,0.00
2022-10-01T01:15:27.681Z,0.00
2022-10-01T01:16:27.614Z,0.00
2022-10-01T01:17:27.545Z,0.00
2022-10-01T01:18:27.484Z,0.00
2022-10-01T01:19:27.421Z,0.00
2022-10-01T01:20:27.380Z,0.00
2022-10-01T01:21:27.287Z,0.00
2022-10-01T01:22:27.225Z,0.00
2022-10-01T01:23:27.155Z,0.00
2022-10-01T01:24:27.099Z,0.00
2022-10-01T01:25:27.028Z,0.00
2022-10-01T01:26:26.984Z,0.00
2022-10-01T01:27:26.896Z,0.00
2022-10-01T01:28:26.883Z,0.00
2022-10-01T01:29:26.830Z,0.00
2022-10-01T01:30:26.718Z,0.00
2022-10-01T01:31:26.723Z,0.00
2022-10-01T01:32:28.879Z,0.00
2022-10-01T01:33:26.511Z,0.00
2022-10-01T01:34:26.450Z,0.00
2022-10-01T01:35:26.391Z,0.00
2022-10-01T01:36:26.318Z,0.00
2022-10-01T01:37:26.254Z,0.00
2022-10-01T01:38:26.207Z,0.00
2022-10-01T01:39:26.121Z,0.00
2022-10-01T01:40:26.058Z,0.00
2022-10-01T01:41:26.003Z,0.00
2022-10-01T01:42:25.928Z,0.00
2022-10-01T01:43:25.883Z,0.00
2022-10-01T01:44:25.820Z,0.00
2022-10-01T01:45:25.742Z,0.00
2022-10-01T01:46:25.672Z,0.00
2022-10-01T01:47:25.606Z,0.00
2022-10-01T01:48:25.543Z,0.00
2022-10-01T01:49:25.478Z,0.00
2022-10-01T01:50:25.423Z,0.00
2022-10-01T01:51:25.373Z,0.00
2022-10-01T01:52:25.310Z,0.00
2022-10-01T01:53:25.219Z,0.00
2022-10-01T01:54:25.152Z,0.00
2022-10-01T01:55:25.087Z,0.00
2022-10-01T01:56:25.037Z,0.00
2022-10-01T01:57:24.957Z,0.00
2022-10-01T01:58:24.892Z,0.00
2022-10-01T01:59:24.830Z,0.00
2022-10-01T02:00:24.766Z,0.00
2022-10-01T02:01:24.735Z,0.00
2022-10-01T02:02:24.691Z,0.00
2022-10-01T02:03:24.569Z,0.00
2022-10-01T02:04:24.506Z,0.00
2022-10-01T02:05:24.443Z,0.00
2022-10-01T02:06:24.369Z,0.00
2022-10-01T02:07:24.331Z,0.00
2022-10-01T02:08:24.257Z,0.00
2022-10-01T02:09:24.180Z,0.00
2022-10-01T02:10:24.111Z,0.00
2022-10-01T02:11:24.052Z,0.00
2022-10-01T02:12:23.985Z,0.00
2022-10-01T02:13:23.919Z,0.00
2022-10-01T02:14:25.649Z,0.00
2022-10-01T02:15:23.804Z,0.00
2022-10-01T02:16:23.790Z,0.00
2022-10-01T02:17:24.322Z,0.00
2022-10-01T02:18:23.593Z,0.00
2022-10-01T02:19:23.534Z,0.00
2022-10-01T02:20:23.481Z,0.00
2022-10-01T02:21:23.405Z,0.00
2022-10-01T02:22:23.337Z,0.00
2022-10-01T02:23:23.272Z,0.00
2022-10-01T02:24:23.205Z,0.00
2022-10-01T02:25:23.136Z,0.00
2022-10-01T02:26:25.391Z,0.00
2022-10-01T02:27:23.011Z,0.00
2022-10-01T02:28:23.037Z,0.00
2022-10-01T02:29:22.879Z,0.00
2022-10-01T02:30:22.819Z,0.00
2022-10-01T02:31:22.856Z,0.00
2022-10-01T02:32:22.697Z,0.00
2022-10-01T02:33:22.642Z,0.00
2022-10-01T02:34:22.559Z,0.00
2022-10-01T02:35:22.489Z,0.00
2022-10-01T02:36:22.449Z,0.00
2022-10-01T02:37:22.358Z,0.00
2022-10-01T02:38:22.322Z,0.00
2022-10-01T02:39:22.236Z,0.00
2022-10-01T02:40:22.166Z,0.00
2022-10-01T02:41:22.104Z,0.00
2022-10-01T02:42:22.040Z,0.00
2022-10-01T02:43:21.971Z,0.00
2022-10-01T02:44:23.446Z,0.00
2022-10-01T02:45:21.845Z,0.00
2022-10-01T02:46:21.899Z,0.00
2022-10-01T02:47:21.717Z,0.00
2022-10-01T02:48:21.645Z,0.00
2022-10-01T02:49:21.592Z,0.00
2022-10-01T02:50:22.301Z,0.00
2022-10-01T02:51:21.456Z,0.00
2022-10-01T02:52:21.393Z,0.00
2022-10-01T02:53:21.323Z,0.00
2022-10-01T02:54:21.259Z,0.00
2022-10-01T02:55:21.196Z,0.00
2022-10-01T02:56:21.147Z,0.00
2022-10-01T02:57:21.068Z,0.00
2022-10-01T02:58:20.999Z,0.00
2022-10-01T02:59:20.946Z,0.00
2022-10-01T03:00:20.881Z,0.00
2022-10-01T03:01:20.822Z,0.00
2022-10-01T03:02:23.061Z,0.00
2022-10-01T03:03:20.676Z,0.00
2022-10-01T03:04:20.611Z,0.00
2022-10-01T03:05:20.550Z,0.00
2022-10-01T03:06:20.485Z,0.00
2022-10-01T03:07:20.422Z,0.00
2022-10-01T03:08:20.369Z,0.00
2022-10-01T03:09:20.288Z,0.00
2022-10-01T03:10:20.221Z,0.00
2022-10-01T03:11:20.161Z,0.00
2022-10-01T03:12:20.099Z,0.00
2022-10-01T03:13:20.026Z,0.00
2022-10-01T03:14:19.983Z,0.00
2022-10-01T03:15:19.900Z,0.00
2022-10-01T03:16:19.852Z,0.00
2022-10-01T03:17:19.773Z,0.00
2022-10-01T03:18:19.708Z,0.00
2022-10-01T03:19:19.649Z,0.00
2022-10-01T03:20:21.987Z,0.00
2022-10-01T03:21:19.510Z,0.00
2022-10-01T03:22:19.454Z,0.00
2022-10-01T03:23:19.382Z,0.00
2022-10-01T03:24:19.315Z,0.00
2022-10-01T03:25:19.258Z,0.00
2022-10-01T03:26:19.212Z,0.00
2022-10-01T03:27:19.127Z,0.00
2022-10-01T03:28:19.080Z,0.00
2022-10-01T03:29:18.993Z,0.00
2022-10-01T03:30:18.927Z,0.00
2022-10-01T03:31:18.923Z,0.00
2022-10-01T03:32:18.813Z,0.00
2022-10-01T03:33:18.733Z,0.00
2022-10-01T03:34:18.670Z,0.00
2022-10-01T03:35:18.610Z,0.00
2022-10-01T03:36:18.540Z,0.00
2022-10-01T03:37:18.476Z,0.00
2022-10-01T03:38:19.199Z,0.00
2022-10-01T03:39:18.347Z,0.00
2022-10-01T03:40:18.283Z,0.00
2022-10-01T03:41:18.220Z,0.00
2022-10-01T03:42:18.164Z,0.00
2022-10-01T03:43:18.091Z,0.00
2022-10-01T03:44:18.038Z,0.00
2022-10-01T03:45:17.957Z,0.00
2022-10-01T03:46:17.896Z,0.00
2022-10-01T03:47:17.833Z,0.00
2022-10-01T03:48:17.769Z,0.00
2022-10-01T03:49:17.708Z,0.00
2022-10-01T03:50:18.416Z,0.00
2022-10-01T03:51:19.868Z,0.00
2022-10-01T03:52:17.509Z,0.00
2022-10-01T03:53:17.447Z,0.00
2022-10-01T03:54:17.375Z,0.00
2022-10-01T03:55:17.312Z,0.00
2022-10-01T03:56:18.788Z,0.00
2022-10-01T03:57:17.181Z,0.00
2022-10-01T03:58:17.119Z,0.00
2022-10-01T03:59:17.061Z,0.00
2022-10-01T04:00:16.988Z,0.00
2022-10-01T04:01:16.990Z,0.00
2022-10-01T04:02:17.047Z,0.00
2022-10-01T04:03:16.798Z,0.00
2022-10-01T04:04:16.733Z,0.00
2022-10-01T04:05:16.696Z,0.00
2022-10-01T04:06:16.606Z,0.00
2022-10-01T04:07:16.541Z,0.00
2022-10-01T04:08:17.951Z,0.00
2022-10-01T04:09:16.416Z,0.00
2022-10-01T04:10:16.364Z,0.00
2022-10-01T04:11:16.315Z,0.00
2022-10-01T04:12:16.230Z,0.00
2022-10-01T04:13:16.152Z,0.00
2022-10-01T04:14:16.108Z,0.00
2022-10-01T04:15:16.025Z,0.00
2022-10-01T04:16:16.029Z,0.00
2022-10-01T04:17:15.867Z,1.00
2022-10-01T04:18:15.832Z,0.00
2022-10-01T04:19:15.735Z,1.00
2022-10-01T04:20:15.662Z,1.00
2022-10-01T04:21:15.588Z,1.00
2022-10-01T04:22:15.584Z,0.00
2022-10-01T04:23:15.458Z,2.00
2022-10-01T04:24:15.395Z,2.00
2022-10-01T04:25:15.345Z,1.00
2022-10-01T04:26:16.802Z,0.00
2022-10-01T04:27:15.251Z,0.00
2022-10-01T04:28:15.263Z,0.00
2022-10-01T04:29:15.120Z,0.00
2022-10-01T04:30:15.053Z,0.00
2022-10-01T04:31:15.013Z,1.00
2022-10-01T04:32:14.880Z,1.00
2022-10-01T04:33:14.803Z,1.00
2022-10-01T04:34:14.790Z,0.00
2022-10-01T04:35:14.747Z,0.00
2022-10-01T04:36:14.694Z,0.00
2022-10-01T04:37:14.559Z,2.00
2022-10-01T04:38:15.258Z,2.00
2022-10-01T04:39:14.416Z,2.00
2022-10-01T04:40:14.359Z,2.00
2022-10-01T04:41:14.285Z,2.00
2022-10-01T04:42:14.232Z,2.00
2022-10-01T04:43:14.158Z,2.00
2022-10-01T04:44:14.113Z,1.00
2022-10-01T04:45:14.097Z,0.00
2022-10-01T04:46:14.055Z,0.00
2022-10-01T04:47:13.956Z,0.00
2022-10-01T04:48:13.849Z,2.00
2022-10-01T04:49:13.778Z,2.00
2022-10-01T04:50:13.721Z,2.00
2022-10-01T04:51:13.639Z,1.00
2022-10-01T04:52:13.589Z,2.00
2022-10-01T04:53:13.508Z,2.00
2022-10-01T04:54:13.445Z,1.00
2022-10-01T04:55:13.434Z,0.00
2022-10-01T04:56:13.382Z,0.00
2022-10-01T04:57:13.260Z,2.00
2022-10-01T04:58:13.189Z,2.00
2022-10-01T04:59:13.130Z,2.00
2022-10-01T05:00:13.059Z,2.00
2022-10-01T05:01:13.085Z,1.00
2022-10-01T05:02:13.078Z,0.00
2022-10-01T05:03:12.921Z,0.00
2022-10-01T05:04:12.856Z,0.00
2022-10-01T05:05:12.787Z,0.00
2022-10-01T05:06:12.718Z,0.00
2022-10-01T05:07:12.607Z,1.00
2022-10-01T05:08:14.956Z,2.00
2022-10-01T05:09:12.473Z,2.00
2022-10-01T05:10:12.407Z,3.00
2022-10-01T05:11:12.342Z,3.00
2022-10-01T05:12:12.283Z,3.00
2022-10-01T05:13:12.213Z,3.00
2022-10-01T05:14:12.163Z,2.00
2022-10-01T05:15:12.085Z,2.00
2022-10-01T05:16:12.093Z,2.00
2022-10-01T05:17:11.956Z,2.00
2022-10-01T05:18:11.891Z,3.00
2022-10-01T05:19:11.837Z,3.00
2022-10-01T05:20:11.787Z,3.00
2022-10-01T05:21:11.726Z,3.00
2022-10-01T05:22:11.629Z,3.00
2022-10-01T05:23:11.573Z,3.00
2022-10-01T05:24:11.506Z,4.00
2022-10-01T05:25:11.434Z,8.00
2022-10-01T05:26:12.928Z,7.00
2022-10-01T05:27:11.324Z,6.00
2022-10-01T05:28:11.267Z,8.00
2022-10-01T05:29:11.190Z,7.00
2022-10-01T05:30:11.115Z,5.00
2022-10-01T05:31:11.090Z,11.00
2022-10-01T05:32:15.404Z,15.00
2022-10-01T05:33:10.932Z,17.00
2022-10-01T05:34:10.860Z,17.00
2022-10-01T05:35:10.795Z,18.00
2022-10-01T05:36:10.723Z,15.00
2022-10-01T05:37:10.665Z,25.00
2022-10-01T05:38:10.608Z,24.00
2022-10-01T05:39:10.534Z,22.00
2022-10-01T05:40:10.472Z,18.00
2022-10-01T05:41:10.397Z,29.00
2022-10-01T05:42:10.341Z,32.00
2022-10-01T05:43:10.271Z,38.00
2022-10-01T05:44:10.222Z,34.00
2022-10-01T05:45:10.140Z,35.00
2022-10-01T05:46:10.277Z,40.00
2022-10-01T05:47:10.017Z,37.00
2022-10-01T05:48:09.947Z,40.00
2022-10-01T05:49:09.882Z,35.00
2022-10-01T05:50:09.839Z,39.00
2022-10-01T05:51:09.770Z,43.00
2022-10-01T05:52:09.693Z,52.00
2022-10-01T05:53:09.621Z,47.00
2022-10-01T05:54:09.556Z,61.00
2022-10-01T05:55:09.506Z,38.00
2022-10-01T05:56:09.458Z,74.00
2022-10-01T05:57:09.360Z,61.00
2022-10-01T05:58:09.299Z,65.00
2022-10-01T05:59:09.230Z,48.00
2022-10-01T06:00:09.166Z,66.00
2022-10-01T06:01:09.120Z,74.00
2022-10-01T06:02:09.144Z,81.00
2022-10-01T06:03:09.126Z,45.00
2022-10-01T06:04:08.928Z,86.00
2022-10-01T06:05:08.863Z,72.00
2022-10-01T06:06:08.778Z,84.00
2022-10-01T06:07:08.729Z,82.00
2022-10-01T06:08:08.675Z,76.00
2022-10-01T06:09:08.606Z,61.00
2022-10-01T06:10:08.539Z,66.00
2022-10-01T06:11:08.477Z,56.00
2022-10-01T06:12:08.388Z,47.00
2022-10-01T06:13:08.344Z,41.00
2022-10-01T06:14:08.279Z,62.00
2022-10-01T06:15:08.210Z,66.00
2022-10-01T06:16:08.180Z,69.00
2022-10-01T06:17:08.068Z,83.00
2022-10-01T06:18:08.008Z,53.00
2022-10-01T06:19:07.952Z,78.00
2022-10-01T06:20:09.084Z,57.00
2022-10-01T06:21:07.826Z,66.00
2022-10-01T06:22:07.747Z,76.00
2022-10-01T06:23:07.673Z,66.00
2022-10-01T06:24:07.623Z,78.00
2022-10-01T06:25:07.548Z,57.00
2022-10-01T06:26:08.275Z,55.00
2022-10-01T06:27:07.415Z,88.00
2022-10-01T06:28:07.433Z,74.00
2022-10-01T06:29:07.300Z,115.00
2022-10-01T06:30:07.227Z,121.00
2022-10-01T06:31:07.156Z,97.00
2022-10-01T06:32:07.197Z,82.00
2022-10-01T06:33:07.033Z,87.00
2022-10-01T06:34:06.987Z,68.00
2022-10-01T06:35:06.915Z,102.00
2022-10-01T06:36:06.848Z,104.00
2022-10-01T06:37:06.774Z,105.00
2022-10-01T06:38:08.196Z,109.00
2022-10-01T06:39:06.665Z,55.00
2022-10-01T06:40:06.584Z,133.00
2022-10-01T06:41:06.519Z,157.00
2022-10-01T06:42:06.454Z,176.00
2022-10-01T06:43:06.392Z,169.00
2022-10-01T06:44:06.331Z,124.00
2022-10-01T06:45:06.280Z,121.00
2022-10-01T06:46:06.230Z,28.00
2022-10-01T06:47:06.130Z,157.00
2022-10-01T06:48:06.061Z,218.00
2022-10-01T06:49:05.997Z,160.00
2022-10-01T06:50:06.708Z,105.00
2022-10-01T06:51:05.892Z,118.00
2022-10-01T06:52:05.814Z,125.00
2022-10-01T06:53:05.744Z,142.00
2022-10-01T06:54:05.669Z,99.00
2022-10-01T06:55:05.628Z,166.00
2022-10-01T06:56:05.554Z,120.00
2022-10-01T06:57:05.501Z,138.00
2022-10-01T06:58:05.403Z,66.00
2022-10-01T06:59:05.345Z,179.00
2022-10-01T07:00:05.296Z,148.00
2022-10-01T07:01:05.375Z,149.00
2022-10-01T07:02:05.191Z,100.00
2022-10-01T07:03:05.086Z,132.00
2022-10-01T07:04:05.032Z,170.00
2022-10-01T07:05:04.957Z,133.00
2022-10-01T07:06:04.907Z,93.00
2022-10-01T07:07:04.838Z,200.00
2022-10-01T07:08:04.782Z,153.00
2022-10-01T07:09:04.688Z,253.00
2022-10-01T07:10:04.638Z,169.00
2022-10-01T07:11:04.607Z,326.00
2022-10-01T07:12:04.498Z,276.00
2022-10-01T07:13:04.443Z,233.00
2022-10-01T07:14:06.691Z,234.00
2022-10-01T07:15:04.307Z,172.00
2022-10-01T07:16:04.338Z,200.00
2022-10-01T07:17:04.174Z,288.00
2022-10-01T07:18:04.110Z,237.00
2022-10-01T07:19:04.064Z,308.00
2022-10-01T07:20:04.784Z,259.00
2022-10-01T07:21:03.927Z,221.00
2022-10-01T07:22:03.853Z,285.00
2022-10-01T07:23:03.805Z,241.00
2022-10-01T07:24:03.719Z,210.00
2022-10-01T07:25:03.693Z,204.00
2022-10-01T07:26:03.610Z,220.00
2022-10-01T07:27:07.201Z,158.00
2022-10-01T07:28:03.488Z,318.00
2022-10-01T07:29:03.394Z,270.00
2022-10-01T07:30:03.332Z,177.00
2022-10-01T07:31:03.263Z,288.00
2022-10-01T07:32:03.280Z,244.00
2022-10-01T07:33:03.142Z,311.00
2022-10-01T07:34:03.069Z,189.00
2022-10-01T07:35:03.021Z,251.00
2022-10-01T07:36:02.984Z,272.00
2022-10-01T07:37:02.886Z,405.00
2022-10-01T07:38:02.844Z,356.00
2022-10-01T07:39:02.752Z,298.00
2022-10-01T07:40:07.202Z,268.00
2022-10-01T07:41:02.625Z,318.00
2022-10-01T07:42:02.552Z,226.00
2022-10-01T07:43:02.507Z,292.00
2022-10-01T07:44:03.213Z,308.00
2022-10-01T07:45:02.367Z,236.00
2022-10-01T07:46:02.418Z,227.00
2022-10-01T07:47:02.245Z,246.00
2022-10-01T07:48:02.179Z,236.00
2022-10-01T07:49:02.105Z,291.00
2022-10-01T07:50:02.078Z,222.00
2022-10-01T07:51:01.971Z,379.00
2022-10-01T07:52:01.915Z,283.00
2022-10-01T07:53:01.839Z,276.00
2022-10-01T07:54:01.791Z,256.00
2022-10-01T07:55:01.711Z,381.00
2022-10-01T07:56:03.210Z,258.00
2022-10-01T07:57:01.593Z,539.00
2022-10-01T07:58:01.586Z,468.00
2022-10-01T07:59:01.454Z,378.00
2022-10-01T08:00:01.410Z,379.00
2022-10-01T08:01:01.448Z,327.00
2022-10-01T08:02:01.313Z,417.00
2022-10-01T08:03:01.200Z,312.00
2022-10-01T08:04:01.145Z,254.00
2022-10-01T08:05:01.075Z,188.00
2022-10-01T08:06:00.997Z,242.00
2022-10-01T08:07:00.946Z,292.00
2022-10-01T08:08:00.897Z,200.00
2022-10-01T08:09:00.802Z,292.00
2022-10-01T08:10:00.758Z,313.00
2022-10-01T08:11:00.680Z,325.00
2022-10-01T08:12:00.607Z,365.00
2022-10-01T08:13:00.559Z,355.00
2022-10-01T08:14:00.491Z,214.00
2022-10-01T08:15:00.417Z,331.00
2022-10-01T08:16:00.383Z,489.00
2022-10-01T08:17:00.337Z,293.00
2022-10-01T08:18:00.228Z,317.00
2022-10-01T08:19:00.180Z,642.00
2022-10-01T08:20:01.326Z,419.00
2022-10-01T08:21:00.031Z,492.00
2022-10-01T08:21:59.978Z,793.00
2022-10-01T08:22:59.918Z,712.00
2022-10-01T08:23:59.845Z,573.00
2022-10-01T08:24:59.773Z,420.00
2022-10-01T08:25:59.738Z,441.00
2022-10-01T08:26:59.652Z,781.00
2022-10-01T08:27:59.618Z,854.00
2022-10-01T08:28:59.522Z,704.00
2022-10-01T08:29:59.463Z,741.00
2022-10-01T08:30:59.402Z,595.00
2022-10-01T08:31:59.402Z,495.00
2022-10-01T08:32:59.250Z,472.00
2022-10-01T08:33:59.190Z,915.00
2022-10-01T08:34:59.134Z,910.00
2022-10-01T08:35:59.060Z,1027.00
2022-10-01T08:36:59.010Z,717.00
2022-10-01T08:37:58.980Z,949.00
2022-10-01T08:38:58.880Z,947.00
2022-10-01T08:39:58.809Z,780.00
2022-10-01T08:40:58.744Z,878.00
2022-10-01T08:41:58.676Z,795.00
2022-10-01T08:42:58.609Z,585.00
2022-10-01T08:43:59.752Z,766.00
2022-10-01T08:44:58.477Z,665.00
2022-10-01T08:45:58.466Z,449.00
2022-10-01T08:46:58.362Z,730.00
2022-10-01T08:47:58.280Z,695.00
2022-10-01T08:48:58.231Z,544.00
2022-10-01T08:49:58.188Z,302.00
2022-10-01T08:50:58.088Z,670.00
2022-10-01T08:51:58.025Z,511.00
2022-10-01T08:52:57.966Z,529.00
2022-10-01T08:53:57.901Z,660.00
2022-10-01T08:54:57.831Z,664.00
2022-10-01T08:55:58.546Z,663.00
2022-10-01T08:56:57.708Z,882.00
2022-10-01T08:57:57.635Z,713.00
2022-10-01T08:58:57.570Z,1020.00
2022-10-01T08:59:57.515Z,1008.00
2022-10-01T09:00:57.478Z,934.00
2022-10-01T09:01:58.160Z,869.00
2022-10-01T09:02:57.323Z,930.00
2022-10-01T09:03:57.246Z,1033.00
2022-10-01T09:05:01.272Z,672.00
2022-10-01T09:05:57.115Z,1018.00
2022-10-01T09:06:57.046Z,735.00
2022-10-01T09:07:57.004Z,1080.00
2022-10-01T09:08:56.922Z,1118.00
2022-10-01T09:09:56.860Z,1054.00
2022-10-01T09:10:56.819Z,883.00
2022-10-01T09:11:56.725Z,770.00
2022-10-01T09:12:56.668Z,806.00
2022-10-01T09:13:57.415Z,769.00
2022-10-01T09:14:56.651Z,709.00
2022-10-01T09:15:56.475Z,699.00
2022-10-01T09:16:56.420Z,819.00
2022-10-01T09:17:56.359Z,810.00
2022-10-01T09:18:56.286Z,506.00
2022-10-01T09:19:56.238Z,1457.00
2022-10-01T09:20:56.182Z,1119.00
2022-10-01T09:21:56.090Z,1148.00
2022-10-01T09:22:56.020Z,943.00
2022-10-01T09:23:55.958Z,754.00
2022-10-01T09:24:55.888Z,713.00
2022-10-01T09:25:55.858Z,657.00
2022-10-01T09:26:55.771Z,685.00
2022-10-01T09:27:55.737Z,776.00
2022-10-01T09:28:55.635Z,644.00
2022-10-01T09:29:55.577Z,1221.00
2022-10-01T09:30:55.500Z,1060.00
2022-10-01T09:31:55.487Z,789.00
2022-10-01T09:32:55.391Z,737.00
2022-10-01T09:33:55.309Z,901.00
2022-10-01T09:34:55.246Z,1041.00
2022-10-01T09:35:55.181Z,1246.00
2022-10-01T09:36:55.135Z,844.00
2022-10-01T09:37:55.876Z,1224.00
2022-10-01T09:38:55.006Z,837.00
2022-10-01T09:39:54.932Z,1359.00
2022-10-01T09:40:54.951Z,1529.00
2022-10-01T09:41:54.802Z,1166.00
2022-10-01T09:42:54.748Z,1401.00
2022-10-01T09:43:55.464Z,1032.00
2022-10-01T09:44:54.602Z,1118.00
2022-10-01T09:45:54.652Z,1310.00
2022-10-01T09:46:54.483Z,1125.00
2022-10-01T09:47:54.414Z,829.00
2022-10-01T09:48:54.353Z,1076.00
2022-10-01T09:49:54.300Z,814.00
2022-10-01T09:50:54.213Z,1078.00
2022-10-01T09:51:54.144Z,817.00
2022-10-01T09:52:54.086Z,760.00
2022-10-01T09:53:54.019Z,1211.00
2022-10-01T09:54:53.970Z,1000.00
2022-10-01T09:55:54.963Z,808.00
2022-10-01T09:56:53.818Z,863.00
2022-10-01T09:57:53.765Z,749.00
2022-10-01T09:58:53.729Z,676.00
2022-10-01T09:59:53.622Z,541.00
2022-10-01T10:00:53.598Z,558.00
2022-10-01T10:01:55.524Z,1027.00
2022-10-01T10:02:53.629Z,1103.00
2022-10-01T10:03:53.382Z,1124.00
2022-10-01T10:04:53.320Z,1287.00
2022-10-01T10:05:53.249Z,1339.00
2022-10-01T10:06:53.193Z,1166.00
2022-10-01T10:07:53.898Z,1162.00
2022-10-01T10:08:53.057Z,714.00
2022-10-01T10:09:52.989Z,1088.00
2022-10-01T10:10:52.929Z,1313.00
2022-10-01T10:11:52.864Z,982.00
2022-10-01T10:12:52.789Z,750.00
2022-10-01T10:13:52.740Z,768.00
2022-10-01T10:14:52.679Z,992.00
2022-10-01T10:15:52.678Z,834.00
2022-10-01T10:16:52.544Z,1190.00
2022-10-01T10:17:52.471Z,901.00
2022-10-01T10:18:52.501Z,750.00
2022-10-01T10:19:53.123Z,590.00
2022-10-01T10:20:52.317Z,510.00
2022-10-01T10:21:52.229Z,903.00
2022-10-01T10:22:52.170Z,1138.00
2022-10-01T10:23:52.095Z,922.00
2022-10-01T10:24:52.011Z,1100.00
2022-10-01T10:25:51.982Z,958.00
2022-10-01T10:26:51.903Z,1123.00
2022-10-01T10:27:51.882Z,762.00
2022-10-01T10:28:51.756Z,1209.00
2022-10-01T10:29:51.688Z,1429.00
2022-10-01T10:30:51.652Z,1395.00
2022-10-01T10:31:51.713Z,1002.00
2022-10-01T10:32:51.506Z,1267.00
2022-10-01T10:33:51.431Z,1623.00
2022-10-01T10:34:51.390Z,1206.00
2022-10-01T10:35:51.297Z,1744.00
2022-10-01T10:36:51.238Z,1277.00
2022-10-01T10:37:57.470Z,1348.00
2022-10-01T10:38:51.119Z,1312.00
2022-10-01T10:39:51.044Z,1902.00
2022-10-01T10:40:50.988Z,1973.00
2022-10-01T10:41:50.930Z,1478.00
2022-10-01T10:42:50.884Z,1345.00
2022-10-01T10:43:50.806Z,1840.00
2022-10-01T10:44:50.721Z,2305.00
2022-10-01T10:45:50.937Z,3020.00
2022-10-01T10:46:50.684Z,2556.00
2022-10-01T10:47:50.526Z,2295.00
2022-10-01T10:48:50.466Z,1691.00
2022-10-01T10:49:50.423Z,1635.00
2022-10-01T10:50:50.376Z,2114.00
2022-10-01T10:51:50.272Z,2582.00
2022-10-01T10:52:50.220Z,2952.00
2022-10-01T10:53:50.143Z,2087.00
2022-10-01T10:54:50.074Z,2311.00
2022-10-01T10:55:51.577Z,2285.00
2022-10-01T10:56:49.951Z,2596.00
2022-10-01T10:57:53.332Z,1824.00
2022-10-01T10:58:49.842Z,1915.00
2022-10-01T10:59:49.757Z,1217.00
2022-10-01T11:00:49.687Z,1986.00
2022-10-01T11:01:49.819Z,1074.00
2022-10-01T11:02:49.583Z,2720.00
2022-10-01T11:03:49.507Z,3043.00
2022-10-01T11:04:49.441Z,2480.00
2022-10-01T11:05:49.371Z,1184.00
2022-10-01T11:06:49.319Z,4064.00
2022-10-01T11:07:50.480Z,3076.00
2022-10-01T11:08:49.174Z,3322.00
2022-10-01T11:09:49.129Z,2292.00
2022-10-01T11:10:49.073Z,3271.00
2022-10-01T11:11:48.992Z,4255.00
2022-10-01T11:12:48.923Z,3234.00
2022-10-01T11:13:48.883Z,2075.00
2022-10-01T11:14:48.809Z,3808.00
2022-10-01T11:15:48.744Z,2782.00
2022-10-01T11:16:48.661Z,2600.00
2022-10-01T11:17:48.598Z,3062.00
2022-10-01T11:18:48.536Z,2758.00
2022-10-01T11:19:48.488Z,3148.00
2022-10-01T11:20:48.418Z,3256.00
2022-10-01T11:21:48.344Z,2707.00
2022-10-01T11:22:48.286Z,2866.00
2022-10-01T11:23:48.211Z,2852.00
2022-10-01T11:24:48.166Z,2225.00
2022-10-01T11:25:48.120Z,2521.00
2022-10-01T11:26:50.641Z,1687.00
2022-10-01T11:27:47.995Z,2221.00
2022-10-01T11:28:47.909Z,2722.00
2022-10-01T11:29:47.832Z,3553.00
2022-10-01T11:30:47.782Z,2393.00
2022-10-01T11:31:50.924Z,3037.00
2022-10-01T11:32:47.649Z,1903.00
2022-10-01T11:33:47.588Z,2348.00
2022-10-01T11:34:47.510Z,3049.00
2022-10-01T11:35:47.458Z,3205.00
2022-10-01T11:36:49.192Z,2952.00
2022-10-01T11:37:47.336Z,2656.00
2022-10-01T11:38:47.260Z,3201.00
2022-10-01T11:39:47.213Z,2522.00
2022-10-01T11:40:47.139Z,2953.00
2022-10-01T11:41:47.081Z,1597.00
2022-10-01T11:42:46.994Z,2721.00
2022-10-01T11:43:46.945Z,2336.00
2022-10-01T11:44:46.874Z,3938.00
2022-10-01T11:45:46.815Z,2817.00
2022-10-01T11:46:46.810Z,3104.00
2022-10-01T11:47:46.677Z,3448.00
2022-10-01T11:48:46.608Z,2829.00
2022-10-01T11:49:47.360Z,2911.00
2022-10-01T11:50:46.492Z,2990.00
2022-10-01T11:51:46.433Z,2221.00
2022-10-01T11:52:46.375Z,2487.00
2022-10-01T11:53:46.309Z,2165.00
2022-10-01T11:54:46.226Z,3067.00
2022-10-01T11:55:46.954Z,2653.00
2022-10-01T11:56:46.102Z,3795.00
2022-10-01T11:57:46.047Z,3803.00
2022-10-01T11:58:45.970Z,4067.00
2022-10-01T11:59:45.905Z,2708.00
2022-10-01T12:00:45.841Z,2055.00
2022-10-01T12:01:45.820Z,4233.00
2022-10-01T12:02:45.737Z,3267.00
2022-10-01T12:03:45.662Z,2916.00
2022-10-01T12:04:45.584Z,3064.00
2022-10-01T12:05:45.571Z,3119.00
2022-10-01T12:06:45.480Z,1596.00
2022-10-01T12:07:46.876Z,3062.00
2022-10-01T12:08:45.334Z,3548.00
2022-10-01T12:09:45.273Z,2676.00
2022-10-01T12:10:45.208Z,2774.00
2022-10-01T12:11:45.157Z,2851.00
2022-10-01T12:12:45.080Z,1889.00
2022-10-01T12:13:45.792Z,2355.00
2022-10-01T12:14:44.959Z,2611.00
2022-10-01T12:15:44.925Z,2902.00
2022-10-01T12:16:44.870Z,2946.00
2022-10-01T12:17:44.773Z,2346.00
2022-10-01T12:18:44.705Z,3031.00
2022-10-01T12:19:44.657Z,2874.00
2022-10-01T12:20:44.580Z,3375.00
2022-10-01T12:21:44.502Z,2591.00
2022-10-01T12:22:44.436Z,2547.00
2022-10-01T12:23:44.387Z,2651.00
2022-10-01T12:24:44.319Z,2731.00
2022-10-01T12:25:44.270Z,2670.00
2022-10-01T12:26:44.196Z,2095.00
2022-10-01T12:27:44.205Z,2138.00
2022-10-01T12:28:47.905Z,1606.00
2022-10-01T12:29:44.012Z,1583.00
2022-10-01T12:30:43.946Z,1521.00
2022-10-01T12:31:45.475Z,1744.00
2022-10-01T12:32:43.807Z,2280.00
2022-10-01T12:33:43.746Z,2240.00
2022-10-01T12:34:43.666Z,2041.00
2022-10-01T12:35:43.627Z,1861.00
2022-10-01T12:36:43.538Z,1542.00
2022-10-01T12:37:44.049Z,1555.00
2022-10-01T12:38:43.430Z,1456.00
2022-10-01T12:39:43.366Z,1425.00
2022-10-01T12:40:43.303Z,1692.00
2022-10-01T12:41:43.223Z,1635.00
2022-10-01T12:42:43.167Z,1788.00
2022-10-01T12:43:43.872Z,1955.00
2022-10-01T12:44:43.030Z,2385.00